Time;durP1;ratioP1;P1;durP2;ratioP2;P2;SDS_P1;SDS_P2;PMS_P1;PMS_P2;Temp;Humidity;BMP_temperature;BMP_pressure;BME280_temperature;BME280_humidity;BME280_pressure;Samples;Min_cycle;Max_cycle;Signal;HPM_P1;HPM_P2
2023/03/05 00:00:27;;;;;;;3.63;1.47;;;;;;;;;;1047691;28;20028;-54
2023/03/05 00:01:04;;;;;;;3.28;1.80;;;;;;;;;;1047874;28;20599;-55
2023/03/05 00:01:35;;;;;;;5.22;2.17;;;;;;;;;;1051393;28;20058;-55
2023/03/05 00:02:06;;;;;;;3.42;1.70;;;;;;;;;;1051806;28;20024;-55
2023/03/05 00:02:37;;;;;;;4.13;1.58;;;;;;;;;;1051933;28;20043;-55
2023/03/05 00:03:08;;;;;;;5.37;1.90;;;;;;;;;;1051959;28;20022;-54
2023/03/05 00:03:39;;;;;;;4.60;1.65;;;;;;;;;;1051748;28;20246;-55
2023/03/05 00:04:12;;;;;;;3.97;1.70;;;;;;;;;;1052130;28;20375;-55
2023/03/05 00:04:43;;;;;;;3.22;1.55;;;;;;;;;;1051506;28;21130;-55
2023/03/05 00:05:14;;;;;;;4.87;1.93;;;;;;;;;;1053546;28;20826;-55
2023/03/05 00:05:45;;;;;;;3.80;1.53;;;;;;;;;;1055689;28;20279;-54
2023/03/05 00:06:16;;;;;;;4.47;1.90;;;;;;;;;;1055753;28;20306;-55
2023/03/05 00:06:47;;;;;;;4.00;1.90;;;;;;;;;;1051591;28;20008;-56
2023/03/05 00:07:18;;;;;;;2.92;1.60;;;;;;;;;;1052161;28;20016;-54
2023/03/05 00:07:49;;;;;;;5.30;1.93;;;;;;;;;;1051798;28;20497;-55
2023/03/05 00:08:20;;;;;;;5.83;1.90;;;;;;;;;;1051297;28;20340;-54
2023/03/05 00:08:52;;;;;;;5.83;1.87;;;;;;;;;;1051540;28;20333;-55
2023/03/05 00:09:23;;;;;;;6.32;2.58;;;;;;;;;;1051954;28;20258;-55
2023/03/05 00:09:54;;;;;;;3.97;1.70;;;;;;;;;;1051769;28;20020;-55
2023/03/05 00:10:25;;;;;;;3.80;2.13;;;;;;;;;;1051677;28;20265;-55
2023/03/05 00:11:00;;;;;;;3.83;1.73;;;;;;;;;;1051575;28;20261;-55
2023/03/05 00:11:32;;;;;;;5.05;2.08;;;;;;;;;;1052119;28;20258;-55
2023/03/05 00:12:03;;;;;;;4.35;1.80;;;;;;;;;;1049778;28;20020;-54
2023/03/05 00:12:34;;;;;;;4.32;1.67;;;;;;;;;;1047862;28;20472;-55
2023/03/05 00:13:06;;;;;;;4.28;1.70;;;;;;;;;;1047503;28;20458;-54
2023/03/05 00:13:38;;;;;;;3.17;1.40;;;;;;;;;;1048662;28;20013;-54
2023/03/05 00:14:09;;;;;;;3.75;1.70;;;;;;;;;;1051698;28;20466;-55
2023/03/05 00:14:40;;;;;;;7.82;1.95;;;;;;;;;;1051878;28;20019;-55
2023/03/05 00:15:11;;;;;;;4.40;1.63;;;;;;;;;;1051807;28;20089;-55
2023/03/05 00:15:42;;;;;;;3.55;1.48;;;;;;;;;;1051646;28;20266;-54
2023/03/05 00:16:15;;;;;;;4.50;1.50;;;;;;;;;;1051707;28;20016;-55
2023/03/05 00:16:46;;;;;;;4.63;1.50;;;;;;;;;;1051926;28;20242;-54
2023/03/05 00:17:17;;;;;;;5.15;1.50;;;;;;;;;;1051638;28;20044;-55
2023/03/05 00:17:47;;;;;;;4.95;2.22;;;;;;;;;;1051891;28;20054;-55
2023/03/05 00:18:19;;;;;;;4.73;1.70;;;;;;;;;;1051735;28;20054;-55
2023/03/05 00:18:50;;;;;;;3.92;1.77;;;;;;;;;;1051776;28;20265;-55
2023/03/05 00:19:21;;;;;;;4.82;1.80;;;;;;;;;;1051698;28;20020;-55
2023/03/05 00:19:52;;;;;;;3.45;1.63;;;;;;;;;;1052131;28;20363;-55
2023/03/05 00:20:22;;;;;;;2.88;1.55;;;;;;;;;;1051492;28;20542;-55
2023/03/05 00:20:53;;;;;;;4.17;1.30;;;;;;;;;;1051521;28;20028;-55
2023/03/05 00:21:26;;;;;;;3.65;1.75;;;;;;;;;;1051506;28;20262;-55
2023/03/05 00:21:56;;;;;;;4.72;1.70;;;;;;;;;;1051823;28;20103;-55
2023/03/05 00:22:27;;;;;;;4.72;1.98;;;;;;;;;;1051467;28;20020;-55
2023/03/05 00:22:58;;;;;;;3.77;2.03;;;;;;;;;;1051445;28;20028;-55
2023/03/05 00:23:29;;;;;;;3.90;1.65;;;;;;;;;;1051721;28;20333;-54
2023/03/05 00:24:02;;;;;;;3.83;1.40;;;;;;;;;;1051864;28;20020;-55
2023/03/05 00:24:33;;;;;;;3.75;1.70;;;;;;;;;;1051555;28;20787;-54
2023/03/05 00:25:04;;;;;;;4.13;1.80;;;;;;;;;;1051943;28;20022;-55
2023/03/05 00:25:35;;;;;;;4.13;1.80;;;;;;;;;;1051752;28;20560;-55
2023/03/05 00:26:06;;;;;;;3.30;1.45;;;;;;;;;;1051932;28;20028;-54
2023/03/05 00:26:38;;;;;;;2.47;1.33;;;;;;;;;;1051689;28;20084;-55
2023/03/05 00:27:09;;;;;;;4.30;1.75;;;;;;;;;;1051963;28;20077;-55
2023/03/05 00:27:40;;;;;;;5.20;1.37;;;;;;;;;;1051694;28;20058;-55
2023/03/05 00:28:11;;;;;;;4.82;1.70;;;;;;;;;;1052090;28;20946;-55
2023/03/05 00:28:42;;;;;;;4.40;2.00;;;;;;;;;;1048248;28;20017;-55
2023/03/05 00:29:17;;;;;;;4.10;1.60;;;;;;;;;;1047978;28;20027;-55
2023/03/05 00:29:48;;;;;;;4.13;1.70;;;;;;;;;;1047459;28;20070;-55
2023/03/05 00:30:19;;;;;;;4.47;2.17;;;;;;;;;;1047747;28;20085;-55
2023/03/05 00:30:50;;;;;;;3.57;1.73;;;;;;;;;;1050019;28;20262;-54
2023/03/05 00:31:23;;;;;;;4.50;1.70;;;;;;;;;;1051835;28;20744;-55
2023/03/05 00:31:54;;;;;;;3.88;1.67;;;;;;;;;;1051438;28;20020;-55
2023/03/05 00:32:25;;;;;;;4.90;1.93;;;;;;;;;;1049863;28;20089;-55
2023/03/05 00:32:56;;;;;;;2.70;1.60;;;;;;;;;;1047386;28;21047;-55
2023/03/05 00:33:27;;;;;;;3.33;1.60;;;;;;;;;;1047388;28;20274;-56
2023/03/05 00:33:59;;;;;;;3.67;1.85;;;;;;;;;;1047561;28;20146;-54
2023/03/05 00:34:30;;;;;;;3.78;1.58;;;;;;;;;;1051698;28;20123;-54
2023/03/05 00:35:01;;;;;;;3.97;1.50;;;;;;;;;;1051405;28;20027;-55
2023/03/05 00:35:38;;;;;;;3.95;1.88;;;;;;;;;;1051695;28;20023;-55
2023/03/05 00:36:09;;;;;;;3.65;1.65;;;;;;;;;;1051500;28;20013;-55
2023/03/05 00:36:41;;;;;;;4.75;1.73;;;;;;;;;;1051544;28;20489;-55
2023/03/05 00:37:12;;;;;;;4.32;2.08;;;;;;;;;;1051462;28;20012;-56
2023/03/05 00:37:43;;;;;;;3.50;1.40;;;;;;;;;;1050858;28;20023;-55
2023/03/05 00:38:14;;;;;;;3.53;1.77;;;;;;;;;;1051535;28;20265;-55
2023/03/05 00:38:45;;;;;;;3.63;1.52;;;;;;;;;;1051614;28;21036;-55
2023/03/05 00:39:16;;;;;;;4.50;2.00;;;;;;;;;;1051350;28;20031;-55
2023/03/05 00:39:47;;;;;;;5.80;1.85;;;;;;;;;;1051140;28;20020;-55
2023/03/05 00:40:18;;;;;;;3.07;1.50;;;;;;;;;;1051465;28;20047;-55
2023/03/05 00:40:50;;;;;;;4.30;1.60;;;;;;;;;;1051549;28;20246;-56
2023/03/05 00:41:21;;;;;;;3.90;1.70;;;;;;;;;;1051458;28;20069;-54
2023/03/05 00:41:52;;;;;;;2.63;1.40;;;;;;;;;;1051694;28;20061;-55
2023/03/05 00:42:23;;;;;;;4.30;1.60;;;;;;;;;;1051384;28;20032;-55
2023/03/05 00:42:54;;;;;;;3.95;1.88;;;;;;;;;;1051589;28;20027;-55
2023/03/05 00:43:25;;;;;;;3.60;1.83;;;;;;;;;;1051396;28;20072;-55
2023/03/05 00:43:56;;;;;;;4.90;1.80;;;;;;;;;;1051763;28;20127;-55
2023/03/05 00:44:27;;;;;;;2.35;1.42;;;;;;;;;;1051370;28;20028;-55
2023/03/05 00:44:58;;;;;;;5.25;2.22;;;;;;;;;;1051827;28;20029;-55
2023/03/05 00:45:29;;;;;;;3.38;1.60;;;;;;;;;;1051573;28;20127;-55
2023/03/05 00:46:00;;;;;;;3.40;1.30;;;;;;;;;;1051351;28;20032;-54
2023/03/05 00:46:31;;;;;;;3.05;1.40;;;;;;;;;;1051356;28;20051;-55
2023/03/05 00:47:03;;;;;;;3.63;1.60;;;;;;;;;;1051443;28;20494;-55
2023/03/05 00:47:34;;;;;;;2.22;1.25;;;;;;;;;;1051504;28;20173;-54
2023/03/05 00:48:05;;;;;;;2.85;1.30;;;;;;;;;;1051525;28;20040;-55
2023/03/05 00:48:36;;;;;;;3.47;1.58;;;;;;;;;;1051530;28;20031;-55
2023/03/05 00:49:07;;;;;;;2.78;1.10;;;;;;;;;;1051532;28;20032;-55
2023/03/05 00:49:38;;;;;;;4.45;1.67;;;;;;;;;;1048303;28;20375;-55
2023/03/05 00:50:10;;;;;;;4.33;1.77;;;;;;;;;;1047312;28;20464;-55
2023/03/05 00:50:41;;;;;;;5.78;2.00;;;;;;;;;;1047371;28;20301;-55
2023/03/05 00:51:12;;;;;;;3.40;1.60;;;;;;;;;;1049368;28;20029;-55
2023/03/05 00:51:43;;;;;;;4.32;1.63;;;;;;;;;;1051151;28;20383;-53
2023/03/05 00:52:13;;;;;;;3.65;1.60;;;;;;;;;;1051604;28;20076;-55
2023/03/05 00:52:44;;;;;;;5.18;1.35;;;;;;;;;;1051441;28;20085;-55
2023/03/05 00:53:15;;;;;;;2.33;1.23;;;;;;;;;;1051446;28;20499;-55
2023/03/05 00:53:46;;;;;;;4.25;1.63;;;;;;;;;;1051384;28;20264;-55
2023/03/05 00:54:17;;;;;;;3.72;1.55;;;;;;;;;;1051533;28;20070;-55
2023/03/05 00:54:48;;;;;;;3.67;1.25;;;;;;;;;;1050573;28;20024;-54
2023/03/05 00:55:19;;;;;;;3.17;1.40;;;;;;;;;;1047237;28;20067;-55
2023/03/05 00:55:50;;;;;;;3.08;1.70;;;;;;;;;;1047460;28;20486;-55
2023/03/05 00:56:21;;;;;;;3.45;1.35;;;;;;;;;;1049744;28;20373;-54
2023/03/05 00:56:52;;;;;;;3.67;1.35;;;;;;;;;;1051552;28;20059;-54
2023/03/05 00:57:23;;;;;;;3.70;1.27;;;;;;;;;;1051265;28;20028;-55
2023/03/05 00:57:54;;;;;;;3.20;1.43;;;;;;;;;;1051435;28;20274;-55
2023/03/05 00:58:25;;;;;;;4.57;1.40;;;;;;;;;;1051303;28;20269;-56
2023/03/05 00:58:56;;;;;;;4.13;1.60;;;;;;;;;;1051583;28;20643;-56
2023/03/05 00:59:27;;;;;;;2.75;1.10;;;;;;;;;;1051070;28;20048;-55
2023/03/05 00:59:58;;;;;;;3.22;1.33;;;;;;;;;;1051648;28;20034;-55
2023/03/05 01:00:29;;;;;;;3.28;1.15;;;;;;;;;;1051359;28;20536;-55
2023/03/05 01:01:01;;;;;;;3.63;1.40;;;;;;;;;;1051662;28;20031;-55
2023/03/05 01:01:32;;;;;;;5.15;1.50;;;;;;;;;;1051582;28;21027;-55
2023/03/05 01:02:03;;;;;;;3.80;1.48;;;;;;;;;;1051499;28;20714;-55
2023/03/05 01:02:34;;;;;;;2.25;1.25;;;;;;;;;;1051623;28;20012;-53
2023/03/05 01:03:05;;;;;;;3.50;1.40;;;;;;;;;;1051762;28;20023;-55
2023/03/05 01:03:36;;;;;;;3.13;1.50;;;;;;;;;;1051419;28;20034;-55
2023/03/05 01:04:07;;;;;;;6.22;1.88;;;;;;;;;;1051386;28;20853;-54
2023/03/05 01:04:38;;;;;;;3.75;1.70;;;;;;;;;;1051249;28;20024;-54
2023/03/05 01:05:11;;;;;;;4.40;1.17;;;;;;;;;;1051352;28;20028;-53
2023/03/05 01:05:42;;;;;;;3.50;1.83;;;;;;;;;;1051275;28;20512;-55
2023/03/05 01:06:15;;;;;;;3.65;1.55;;;;;;;;;;1051890;28;20024;-56
2023/03/05 01:06:46;;;;;;;3.35;1.42;;;;;;;;;;1051256;28;20433;-54
2023/03/05 01:07:17;;;;;;;3.85;1.30;;;;;;;;;;1051783;28;20528;-55
2023/03/05 01:07:51;;;;;;;3.88;1.63;;;;;;;;;;1050915;28;20031;-55
2023/03/05 01:08:22;;;;;;;3.25;1.60;;;;;;;;;;1051731;28;20431;-56
2023/03/05 01:08:55;;;;;;;8.77;1.80;;;;;;;;;;1047637;28;20023;-55
2023/03/05 01:09:26;;;;;;;3.30;1.40;;;;;;;;;;1047508;28;20371;-55
2023/03/05 01:09:57;;;;;;;3.22;1.45;;;;;;;;;;1047850;28;20016;-55
2023/03/05 01:10:29;;;;;;;3.42;1.35;;;;;;;;;;1050419;28;20043;-54
2023/03/05 01:11:00;;;;;;;3.10;1.38;;;;;;;;;;1051342;28;20369;-55
2023/03/05 01:11:31;;;;;;;3.42;1.42;;;;;;;;;;1051721;28;20519;-55
2023/03/05 01:12:02;;;;;;;3.20;1.55;;;;;;;;;;1051449;28;20027;-55
2023/03/05 01:12:33;;;;;;;4.77;1.70;;;;;;;;;;1051641;28;20020;-56
2023/03/05 01:13:04;;;;;;;5.60;1.88;;;;;;;;;;1051494;28;20786;-55
2023/03/05 01:13:35;;;;;;;3.33;1.67;;;;;;;;;;1051664;28;20024;-55
2023/03/05 01:14:06;;;;;;;3.50;1.85;;;;;;;;;;1051415;28;20744;-54
2023/03/05 01:14:36;;;;;;;2.80;1.50;;;;;;;;;;1051781;28;20538;-54
2023/03/05 01:15:08;;;;;;;4.57;2.07;;;;;;;;;;1051473;28;20024;-54
2023/03/05 01:15:39;;;;;;;3.42;1.70;;;;;;;;;;1051587;28;20349;-54
2023/03/05 01:16:10;;;;;;;3.95;1.45;;;;;;;;;;1051703;28;20091;-55
2023/03/05 01:16:41;;;;;;;3.53;1.70;;;;;;;;;;1051669;28;20472;-55
2023/03/05 01:17:12;;;;;;;4.80;1.73;;;;;;;;;;1051400;28;20463;-55
2023/03/05 01:17:43;;;;;;;3.35;1.67;;;;;;;;;;1051493;28;20012;-55
2023/03/05 01:18:14;;;;;;;6.33;1.97;;;;;;;;;;1051650;28;20475;-54
2023/03/05 01:18:45;;;;;;;4.15;1.67;;;;;;;;;;1051397;28;20333;-55
2023/03/05 01:19:16;;;;;;;3.72;1.48;;;;;;;;;;1051589;28;20027;-55
2023/03/05 01:19:47;;;;;;;2.92;1.67;;;;;;;;;;1051697;28;20012;-55
2023/03/05 01:20:18;;;;;;;3.90;1.47;;;;;;;;;;1051492;28;20020;-54
2023/03/05 01:20:49;;;;;;;4.57;1.95;;;;;;;;;;1047205;28;20617;-55
2023/03/05 01:21:20;;;;;;;2.70;1.43;;;;;;;;;;1047317;28;20429;-55
2023/03/05 01:21:52;;;;;;;5.05;1.60;;;;;;;;;;1047524;28;20277;-55
2023/03/05 01:22:23;;;;;;;5.53;1.77;;;;;;;;;;1050211;28;20032;-55
2023/03/05 01:22:55;;;;;;;4.40;1.55;;;;;;;;;;1051795;28;20043;-55
2023/03/05 01:23:26;;;;;;;4.38;1.67;;;;;;;;;;1051453;28;20095;-55
2023/03/05 01:23:57;;;;;;;4.13;1.67;;;;;;;;;;1049829;28;20024;-55
2023/03/05 01:24:29;;;;;;;4.85;2.03;;;;;;;;;;1049515;28;20125;-55
2023/03/05 01:25:00;;;;;;;3.63;1.60;;;;;;;;;;1050970;28;20028;-55
2023/03/05 01:25:31;;;;;;;4.50;2.00;;;;;;;;;;1051440;28;20042;-55
2023/03/05 01:26:02;;;;;;;3.15;1.45;;;;;;;;;;1051726;28;20432;-55
2023/03/05 01:26:34;;;;;;;4.03;1.38;;;;;;;;;;1051351;28;20055;-55
2023/03/05 01:27:05;;;;;;;5.22;1.83;;;;;;;;;;1051654;28;20035;-55
2023/03/05 01:27:36;;;;;;;5.22;1.70;;;;;;;;;;1051364;28;20023;-53
2023/03/05 01:28:07;;;;;;;3.38;1.70;;;;;;;;;;1051670;28;20031;-56
2023/03/05 01:28:39;;;;;;;3.78;1.92;;;;;;;;;;1048495;28;20074;-55
2023/03/05 01:29:10;;;;;;;2.85;1.58;;;;;;;;;;1050262;28;20032;-55
2023/03/05 01:29:41;;;;;;;4.50;1.83;;;;;;;;;;1051451;28;20099;-55
2023/03/05 01:30:13;;;;;;;5.07;1.58;;;;;;;;;;1051900;28;20052;-55
2023/03/05 01:30:44;;;;;;;4.60;1.50;;;;;;;;;;1051213;28;20024;-55
2023/03/05 01:31:15;;;;;;;3.03;1.30;;;;;;;;;;1051926;28;20052;-55
2023/03/05 01:31:46;;;;;;;3.13;1.30;;;;;;;;;;1051467;28;20250;-55
2023/03/05 01:32:17;;;;;;;3.28;1.50;;;;;;;;;;1051181;28;20024;-54
2023/03/05 01:32:48;;;;;;;3.60;1.48;;;;;;;;;;1047326;28;20028;-55
2023/03/05 01:33:19;;;;;;;4.55;1.40;;;;;;;;;;1047500;28;20028;-54
2023/03/05 01:33:53;;;;;;;3.58;1.70;;;;;;;;;;1047345;28;20020;-55
2023/03/05 01:34:24;;;;;;;3.97;1.52;;;;;;;;;;1051378;28;20055;-56
2023/03/05 01:34:55;;;;;;;4.03;1.40;;;;;;;;;;1051563;28;20024;-55
2023/03/05 01:35:26;;;;;;;3.17;1.42;;;;;;;;;;1051544;28;20260;-54
2023/03/05 01:35:57;;;;;;;4.07;1.48;;;;;;;;;;1051437;28;20835;-54
2023/03/05 01:36:29;;;;;;;6.97;1.60;;;;;;;;;;1051501;28;20498;-54
2023/03/05 01:37:00;;;;;;;2.22;1.58;;;;;;;;;;1051443;28;20705;-55
2023/03/05 01:37:31;;;;;;;2.03;1.20;;;;;;;;;;1051102;28;20403;-55
2023/03/05 01:38:02;;;;;;;2.70;1.50;;;;;;;;;;1050899;28;20431;-55
2023/03/05 01:38:33;;;;;;;3.95;1.77;;;;;;;;;;1051458;28;20052;-56
2023/03/05 01:39:04;;;;;;;3.88;1.65;;;;;;;;;;1051397;28;20059;-56
2023/03/05 01:39:35;;;;;;;3.65;1.45;;;;;;;;;;1051486;28;20482;-55
2023/03/05 01:40:06;;;;;;;3.88;1.45;;;;;;;;;;1051554;28;20027;-54
2023/03/05 01:40:37;;;;;;;3.33;1.27;;;;;;;;;;1051442;28;20024;-54
2023/03/05 01:41:08;;;;;;;2.88;1.35;;;;;;;;;;1048027;28;20031;-54
2023/03/05 01:41:39;;;;;;;3.63;1.25;;;;;;;;;;1047230;28;20059;-55
2023/03/05 01:42:10;;;;;;;2.60;1.43;;;;;;;;;;1047312;28;20025;-55
2023/03/05 01:42:56;;;;;;;3.33;1.52;;;;;;;;;;1049759;28;20262;-55
2023/03/05 01:43:28;;;;;;;3.42;1.52;;;;;;;;;;1051343;28;20016;-54
2023/03/05 01:43:59;;;;;;;3.50;1.23;;;;;;;;;;1051733;28;20723;-54
2023/03/05 01:44:31;;;;;;;3.50;1.30;;;;;;;;;;1051132;28;20020;-55
2023/03/05 01:45:08;;;;;;;4.40;1.38;;;;;;;;;;1051738;28;20024;-55
2023/03/05 01:45:59;;;;;;;4.00;1.67;;;;;;;;;;1051341;28;20031;-55
2023/03/05 01:46:35;;;;;;;6.10;1.55;;;;;;;;;;1047009;28;20024;-55
2023/03/05 01:47:06;;;;;;;4.63;1.70;;;;;;;;;;1047514;28;20017;-56
2023/03/05 01:47:37;;;;;;;3.90;1.80;;;;;;;;;;1050422;28;20195;-55
2023/03/05 01:48:08;;;;;;;3.15;1.40;;;;;;;;;;1051484;28;20020;-55
2023/03/05 01:48:40;;;;;;;6.07;1.70;;;;;;;;;;1051183;28;20028;-54
2023/03/05 01:49:14;;;;;;;3.58;1.38;;;;;;;;;;1051625;28;20262;-54
2023/03/05 01:49:45;;;;;;;3.97;1.75;;;;;;;;;;1051279;28;20495;-54
2023/03/05 01:50:18;;;;;;;4.88;1.55;;;;;;;;;;1051717;28;20032;-56
2023/03/05 01:50:49;;;;;;;2.40;1.30;;;;;;;;;;1051369;28;20078;-54
2023/03/05 01:51:22;;;;;;;3.40;1.50;;;;;;;;;;1051509;28;20024;-55
2023/03/05 01:51:56;;;;;;;2.83;1.40;;;;;;;;;;1051269;28;20073;-54
2023/03/05 01:52:28;;;;;;;3.72;1.40;;;;;;;;;;1051494;28;20368;-55
2023/03/05 01:53:01;;;;;;;4.97;1.63;;;;;;;;;;1051062;28;20036;-54
2023/03/05 01:53:32;;;;;;;3.28;1.65;;;;;;;;;;1051707;28;20044;-54
2023/03/05 01:54:05;;;;;;;4.70;1.55;;;;;;;;;;1051374;28;20024;-55
2023/03/05 01:54:38;;;;;;;3.45;1.50;;;;;;;;;;1051447;28;20020;-54
2023/03/05 01:55:13;;;;;;;4.15;1.70;;;;;;;;;;1048472;28;20677;-55
2023/03/05 01:55:44;;;;;;;4.60;1.60;;;;;;;;;;1047266;28;20032;-55
2023/03/05 01:56:15;;;;;;;6.53;1.75;;;;;;;;;;1049019;28;20101;-54
2023/03/05 01:56:48;;;;;;;4.13;1.65;;;;;;;;;;1051075;28;20823;-55
2023/03/05 01:57:21;;;;;;;4.80;1.60;;;;;;;;;;1050997;28;20114;-54
2023/03/05 01:58:04;;;;;;;3.45;1.70;;;;;;;;;;1052026;28;20035;-55
2023/03/05 01:58:35;;;;;;;4.47;1.70;;;;;;;;;;1048796;28;20510;-54
2023/03/05 01:59:06;;;;;;;4.45;1.67;;;;;;;;;;1046798;28;20557;-54
2023/03/05 01:59:38;;;;;;;4.22;1.55;;;;;;;;;;1047037;28;20382;-55
2023/03/05 02:00:14;;;;;;;3.70;1.48;;;;;;;;;;1047488;28;20091;-53
2023/03/05 02:00:48;;;;;;;3.95;1.63;;;;;;;;;;1051379;28;20374;-54
2023/03/05 02:01:19;;;;;;;4.18;1.60;;;;;;;;;;1049659;28;20043;-53
2023/03/05 02:01:52;;;;;;;5.85;1.60;;;;;;;;;;1049193;28;20531;-55
2023/03/05 02:02:24;;;;;;;3.05;1.20;;;;;;;;;;1051175;28;20085;-54
2023/03/05 02:02:56;;;;;;;4.35;1.95;;;;;;;;;;1051454;28;20051;-53
2023/03/05 02:03:27;;;;;;;4.57;1.75;;;;;;;;;;1051059;28;20026;-55
2023/03/05 02:03:58;;;;;;;2.30;1.33;;;;;;;;;;1051568;28;20052;-54
2023/03/05 02:04:36;;;;;;;3.30;1.27;;;;;;;;;;1051251;28;20020;-54
2023/03/05 02:05:09;;;;;;;4.63;1.65;;;;;;;;;;1051479;28;20778;-54
2023/03/05 02:05:43;;;;;;;3.78;1.70;;;;;;;;;;1051248;28;20120;-55
2023/03/05 02:06:14;;;;;;;4.50;1.90;;;;;;;;;;1051697;28;20020;-55
2023/03/05 02:06:46;;;;;;;6.72;1.95;;;;;;;;;;1051004;28;20024;-54
2023/03/05 02:07:17;;;;;;;4.38;1.85;;;;;;;;;;1050979;28;20016;-54
2023/03/05 02:07:48;;;;;;;3.95;1.63;;;;;;;;;;1051182;28;20030;-54
2023/03/05 02:08:20;;;;;;;4.20;2.00;;;;;;;;;;1051349;28;20024;-53
2023/03/05 02:08:51;;;;;;;3.95;1.88;;;;;;;;;;1051227;28;20079;-54
2023/03/05 02:09:22;;;;;;;3.87;1.93;;;;;;;;;;1051608;28;20457;-53
2023/03/05 02:09:53;;;;;;;3.92;1.90;;;;;;;;;;1051269;28;20313;-53
2023/03/05 02:10:29;;;;;;;3.53;1.80;;;;;;;;;;1051227;28;20028;-54
2023/03/05 02:11:01;;;;;;;2.75;1.52;;;;;;;;;;1051112;28;20273;-54
2023/03/05 02:11:32;;;;;;;3.33;1.42;;;;;;;;;;1051419;28;20012;-54
2023/03/05 02:12:03;;;;;;;3.42;1.27;;;;;;;;;;1051225;28;20027;-54
2023/03/05 02:12:34;;;;;;;4.07;1.63;;;;;;;;;;1051440;28;20157;-54
2023/03/05 02:13:07;;;;;;;5.90;1.98;;;;;;;;;;1051317;28;20402;-54
2023/03/05 02:13:39;;;;;;;4.78;1.60;;;;;;;;;;1051301;28;20031;-54
2023/03/05 02:14:10;;;;;;;3.75;1.80;;;;;;;;;;1051322;28;20044;-54
2023/03/05 02:14:42;;;;;;;3.20;1.42;;;;;;;;;;1051419;28;20459;-54
2023/03/05 02:15:13;;;;;;;3.60;1.40;;;;;;;;;;1051489;28;20023;-54
2023/03/05 02:15:46;;;;;;;3.38;1.58;;;;;;;;;;1051219;28;20027;-52
2023/03/05 02:16:17;;;;;;;3.55;1.67;;;;;;;;;;1051418;28;20379;-55
2023/03/05 02:16:48;;;;;;;3.75;1.60;;;;;;;;;;1051231;28;20482;-55
2023/03/05 02:17:19;;;;;;;4.53;1.90;;;;;;;;;;1051162;28;21023;-53
2023/03/05 02:17:50;;;;;;;4.35;1.50;;;;;;;;;;1051223;28;20023;-54
2023/03/05 02:18:21;;;;;;;4.68;1.70;;;;;;;;;;1051237;28;20051;-54
2023/03/05 02:18:52;;;;;;;2.35;1.27;;;;;;;;;;1051109;28;20049;-54
2023/03/05 02:19:23;;;;;;;3.35;1.60;;;;;;;;;;1051332;28;20016;-54
2023/03/05 02:19:55;;;;;;;3.95;1.80;;;;;;;;;;1051323;28;20027;-54
2023/03/05 02:20:30;;;;;;;4.38;1.25;;;;;;;;;;1051047;28;20016;-54
2023/03/05 02:21:05;;;;;;;3.20;1.25;;;;;;;;;;1050767;28;20052;-54
2023/03/05 02:21:38;;;;;;;4.03;1.63;;;;;;;;;;1050878;28;20505;-55
2023/03/05 02:22:14;;;;;;;4.10;1.88;;;;;;;;;;1050544;28;20020;-54
2023/03/05 02:22:45;;;;;;;3.63;1.52;;;;;;;;;;1050803;28;20499;-55
2023/03/05 02:23:16;;;;;;;3.42;1.52;;;;;;;;;;1051271;28;20495;-55
2023/03/05 02:23:47;;;;;;;5.90;1.95;;;;;;;;;;1050914;28;20020;-53
2023/03/05 02:24:31;;;;;;;4.67;1.60;;;;;;;;;;1051282;28;20016;-54
2023/03/05 02:25:11;;;;;;;3.63;1.33;;;;;;;;;;1051292;28;20813;-54
2023/03/05 02:25:42;;;;;;;3.97;1.83;;;;;;;;;;1050940;28;20055;-54
2023/03/05 02:26:13;;;;;;;2.63;1.20;;;;;;;;;;1051402;28;20095;-54
2023/03/05 02:26:46;;;;;;;2.95;1.40;;;;;;;;;;1051092;28;20059;-54
2023/03/05 02:27:18;;;;;;;2.53;1.40;;;;;;;;;;1051324;28;20016;-55
2023/03/05 02:27:52;;;;;;;4.32;1.75;;;;;;;;;;1050937;28;20035;-55
2023/03/05 02:28:23;;;;;;;3.78;1.63;;;;;;;;;;1050569;28;20023;-55
2023/03/05 02:28:56;;;;;;;3.33;1.50;;;;;;;;;;1046924;28;20041;-55
2023/03/05 02:29:28;;;;;;;4.03;1.88;;;;;;;;;;1047060;28;20631;-55
2023/03/05 02:29:59;;;;;;;4.82;1.73;;;;;;;;;;1047012;28;20036;-55
2023/03/05 02:30:31;;;;;;;3.40;1.42;;;;;;;;;;1047074;28;20021;-54
2023/03/05 02:31:02;;;;;;;3.65;1.48;;;;;;;;;;1051043;28;20023;-55
2023/03/05 02:31:33;;;;;;;4.10;1.40;;;;;;;;;;1051335;28;20375;-54
2023/03/05 02:32:04;;;;;;;3.60;1.65;;;;;;;;;;1051146;28;20028;-55
2023/03/05 02:32:35;;;;;;;5.07;1.95;;;;;;;;;;1051186;28;20024;-55
2023/03/05 02:33:06;;;;;;;5.30;1.87;;;;;;;;;;1051133;28;20675;-55
2023/03/05 02:33:37;;;;;;;3.97;1.80;;;;;;;;;;1051298;28;20326;-54
2023/03/05 02:34:08;;;;;;;2.88;1.58;;;;;;;;;;1051134;28;20073;-55
2023/03/05 02:34:39;;;;;;;3.63;1.60;;;;;;;;;;1051241;28;20888;-55
2023/03/05 02:35:10;;;;;;;4.30;1.60;;;;;;;;;;1051273;28;20013;-56
2023/03/05 02:35:42;;;;;;;4.65;1.67;;;;;;;;;;1051087;28;20095;-55
2023/03/05 02:36:14;;;;;;;3.67;1.55;;;;;;;;;;1051412;28;20019;-55
2023/03/05 02:36:45;;;;;;;5.78;2.08;;;;;;;;;;1050798;28;20016;-54
2023/03/05 02:37:16;;;;;;;3.08;1.30;;;;;;;;;;1051464;28;20020;-55
2023/03/05 02:37:47;;;;;;;4.30;1.80;;;;;;;;;;1051019;28;20016;-54
2023/03/05 02:38:19;;;;;;;3.55;1.80;;;;;;;;;;1051248;28;20269;-54
2023/03/05 02:38:51;;;;;;;5.88;1.90;;;;;;;;;;1050535;28;20020;-55
2023/03/05 02:39:22;;;;;;;2.78;1.52;;;;;;;;;;1051113;28;20027;-54
2023/03/05 02:39:53;;;;;;;6.55;1.70;;;;;;;;;;1051122;28;20027;-55
2023/03/05 02:40:24;;;;;;;3.47;1.50;;;;;;;;;;1051238;28;20016;-54
2023/03/05 02:40:55;;;;;;;6.63;1.70;;;;;;;;;;1051038;28;20785;-55
2023/03/05 02:41:27;;;;;;;3.55;1.83;;;;;;;;;;1050993;28;20020;-55
2023/03/05 02:41:58;;;;;;;4.50;1.90;;;;;;;;;;1051230;28;20020;-56
2023/03/05 02:42:32;;;;;;;3.53;1.58;;;;;;;;;;1051026;28;20051;-55
2023/03/05 02:43:03;;;;;;;4.40;1.73;;;;;;;;;;1050983;28;20025;-55
2023/03/05 02:43:34;;;;;;;3.85;1.70;;;;;;;;;;1050939;28;20111;-55
2023/03/05 02:44:05;;;;;;;4.43;1.60;;;;;;;;;;1050894;28;20703;-55
2023/03/05 02:44:36;;;;;;;3.05;1.50;;;;;;;;;;1050894;28;20666;-55
2023/03/05 02:45:08;;;;;;;4.83;1.80;;;;;;;;;;1051227;28;20026;-54
2023/03/05 02:45:39;;;;;;;4.70;1.92;;;;;;;;;;1050965;28;20399;-54
2023/03/05 02:46:10;;;;;;;4.90;1.63;;;;;;;;;;1051108;28;20486;-55
2023/03/05 02:46:41;;;;;;;4.82;1.58;;;;;;;;;;1050967;28;20088;-55
2023/03/05 02:47:12;;;;;;;3.25;1.48;;;;;;;;;;1051442;28;20035;-54
2023/03/05 02:47:43;;;;;;;4.60;1.90;;;;;;;;;;1050833;28;20031;-55
2023/03/05 02:48:14;;;;;;;3.75;1.55;;;;;;;;;;1051402;28;20265;-58
2023/03/05 02:48:45;;;;;;;2.80;1.35;;;;;;;;;;1050925;28;20027;-55
2023/03/05 02:49:16;;;;;;;5.00;1.80;;;;;;;;;;1051336;28;20758;-54
2023/03/05 02:49:47;;;;;;;6.68;2.25;;;;;;;;;;1051002;28;20815;-55
2023/03/05 02:50:18;;;;;;;5.50;2.03;;;;;;;;;;1051483;28;20031;-55
2023/03/05 02:50:49;;;;;;;4.00;1.65;;;;;;;;;;1051091;28;20258;-56
2023/03/05 02:51:20;;;;;;;5.38;1.95;;;;;;;;;;1051201;28;20103;-56
2023/03/05 02:51:51;;;;;;;2.83;1.30;;;;;;;;;;1051024;28;20447;-55
2023/03/05 02:52:22;;;;;;;4.65;1.80;;;;;;;;;;1051428;28;20016;-55
2023/03/05 02:52:53;;;;;;;3.15;1.77;;;;;;;;;;1050946;28;20016;-54
2023/03/05 02:53:25;;;;;;;3.40;1.98;;;;;;;;;;1051344;28;20360;-55
2023/03/05 02:53:56;;;;;;;3.20;1.80;;;;;;;;;;1050592;28;20032;-55
2023/03/05 02:54:27;;;;;;;3.70;1.60;;;;;;;;;;1050317;28;20024;-54
2023/03/05 02:54:58;;;;;;;3.00;1.55;;;;;;;;;;1048366;28;20031;-55
2023/03/05 02:55:29;;;;;;;3.60;1.40;;;;;;;;;;1051506;28;20024;-55
2023/03/05 02:56:00;;;;;;;3.38;1.60;;;;;;;;;;1050589;28;20028;-55
2023/03/05 02:56:31;;;;;;;5.50;1.90;;;;;;;;;;1055071;28;20098;-55
2023/03/05 02:57:02;;;;;;;4.70;1.55;;;;;;;;;;1054966;28;20024;-55
2023/03/05 02:57:33;;;;;;;2.22;1.27;;;;;;;;;;1055063;28;20024;-55
2023/03/05 02:58:04;;;;;;;3.90;1.50;;;;;;;;;;1048229;28;20016;-55
2023/03/05 02:58:35;;;;;;;4.07;1.70;;;;;;;;;;1047246;28;20706;-55
2023/03/05 02:59:06;;;;;;;4.82;1.70;;;;;;;;;;1048942;28;20021;-55
2023/03/05 02:59:37;;;;;;;3.25;1.63;;;;;;;;;;1051350;28;20387;-55
2023/03/05 03:00:08;;;;;;;4.22;1.75;;;;;;;;;;1050963;28;20032;-55
2023/03/05 03:00:39;;;;;;;4.68;1.50;;;;;;;;;;1051209;28;20024;-54
2023/03/05 03:01:10;;;;;;;3.72;1.80;;;;;;;;;;1050965;28;20577;-55
2023/03/05 03:01:41;;;;;;;3.53;1.40;;;;;;;;;;1051170;28;20489;-55
2023/03/05 03:02:12;;;;;;;4.30;1.70;;;;;;;;;;1051000;28;20027;-55
2023/03/05 03:02:43;;;;;;;4.15;1.60;;;;;;;;;;1051202;28;20808;-55
2023/03/05 03:03:14;;;;;;;3.38;1.52;;;;;;;;;;1051153;28;20363;-55
2023/03/05 03:03:45;;;;;;;4.00;1.63;;;;;;;;;;1046380;28;20066;-56
2023/03/05 03:04:16;;;;;;;3.42;1.30;;;;;;;;;;1046814;28;20086;-55
2023/03/05 03:04:47;;;;;;;3.87;1.67;;;;;;;;;;1046711;28;20013;-55
2023/03/05 03:05:18;;;;;;;4.30;1.60;;;;;;;;;;1044650;28;20277;-55
2023/03/05 03:05:49;;;;;;;4.57;1.85;;;;;;;;;;1047008;28;20329;-55
2023/03/05 03:06:20;;;;;;;2.92;1.33;;;;;;;;;;1047029;28;20016;-55
2023/03/05 03:06:51;;;;;;;2.53;1.23;;;;;;;;;;1047010;28;20095;-55
2023/03/05 03:07:22;;;;;;;3.45;1.50;;;;;;;;;;1047172;28;20017;-55
2023/03/05 03:07:53;;;;;;;3.65;1.70;;;;;;;;;;1046857;28;20062;-54
2023/03/05 03:08:23;;;;;;;4.30;1.55;;;;;;;;;;1046944;28;20052;-56
2023/03/05 03:08:54;;;;;;;6.05;1.58;;;;;;;;;;1050876;28;20020;-55
2023/03/05 03:09:25;;;;;;;4.30;1.88;;;;;;;;;;1051203;28;20427;-55
2023/03/05 03:09:56;;;;;;;6.40;2.45;;;;;;;;;;1051013;28;20012;-55